sensor_id;sensor_type;location;lat;lon;timestamp;P1;durP1;ratioP1;P2;durP2;ratioP2
12776;SDS011;6452;41.572;23.732;2023-06-10T00:00:13;6.43;;;5.25;;
12776;SDS011;6452;41.572;23.732;2023-06-10T00:02:40;5.38;;;4.88;;
12776;SDS011;6452;41.572;23.732;2023-06-10T00:05:07;6.32;;;5.72;;
12776;SDS011;6452;41.572;23.732;2023-06-10T00:07:34;4.90;;;4.50;;
12776;SDS011;6452;41.572;23.732;2023-06-10T00:10:06;6.22;;;5.53;;
12776;SDS011;6452;41.572;23.732;2023-06-10T00:12:33;5.93;;;5.43;;
12776;SDS011;6452;41.572;23.732;2023-06-10T00:15:03;5.28;;;4.78;;
12776;SDS011;6452;41.572;23.732;2023-06-10T00:17:31;5.57;;;5.07;;
12776;SDS011;6452;41.572;23.732;2023-06-10T00:19:58;5.45;;;4.78;;
12776;SDS011;6452;41.572;23.732;2023-06-10T00:22:25;6.03;;;5.22;;
12776;SDS011;6452;41.572;23.732;2023-06-10T00:24:55;5.25;;;4.75;;
12776;SDS011;6452;41.572;23.732;2023-06-10T00:27:24;5.80;;;5.30;;
12776;SDS011;6452;41.572;23.732;2023-06-10T00:29:51;6.10;;;5.30;;
12776;SDS011;6452;41.572;23.732;2023-06-10T00:32:18;5.93;;;5.40;;
12776;SDS011;6452;41.572;23.732;2023-06-10T00:34:45;8.52;;;5.30;;
12776;SDS011;6452;41.572;23.732;2023-06-10T00:37:11;7.32;;;5.30;;
12776;SDS011;6452;41.572;23.732;2023-06-10T00:39:39;5.47;;;4.97;;
12776;SDS011;6452;41.572;23.732;2023-06-10T00:42:06;5.35;;;4.85;;
12776;SDS011;6452;41.572;23.732;2023-06-10T00:44:36;5.35;;;4.80;;
12776;SDS011;6452;41.572;23.732;2023-06-10T00:47:02;4.90;;;4.40;;
12776;SDS011;6452;41.572;23.732;2023-06-10T00:49:30;4.38;;;3.97;;
12776;SDS011;6452;41.572;23.732;2023-06-10T00:51:56;4.22;;;3.80;;
12776;SDS011;6452;41.572;23.732;2023-06-10T00:54:23;5.18;;;3.63;;
12776;SDS011;6452;41.572;23.732;2023-06-10T00:56:51;3.70;;;3.40;;
12776;SDS011;6452;41.572;23.732;2023-06-10T00:59:17;4.30;;;3.90;;
12776;SDS011;6452;41.572;23.732;2023-06-10T01:01:45;4.15;;;3.85;;
12776;SDS011;6452;41.572;23.732;2023-06-10T01:04:31;4.68;;;4.28;;
12776;SDS011;6452;41.572;23.732;2023-06-10T01:10:02;4.50;;;4.13;;
12776;SDS011;6452;41.572;23.732;2023-06-10T01:15:04;8.13;;;5.45;;
12776;SDS011;6452;41.572;23.732;2023-06-10T01:17:31;6.22;;;5.10;;
12776;SDS011;6452;41.572;23.732;2023-06-10T01:19:57;6.97;;;6.25;;
12776;SDS011;6452;41.572;23.732;2023-06-10T01:22:24;6.30;;;5.65;;
12776;SDS011;6452;41.572;23.732;2023-06-10T01:24:54;8.48;;;6.80;;
12776;SDS011;6452;41.572;23.732;2023-06-10T01:27:26;7.05;;;6.40;;
12776;SDS011;6452;41.572;23.732;2023-06-10T01:29:56;7.60;;;6.07;;
12776;SDS011;6452;41.572;23.732;2023-06-10T01:32:40;7.20;;;5.82;;
12776;SDS011;6452;41.572;23.732;2023-06-10T01:35:24;5.50;;;5.03;;
12776;SDS011;6452;41.572;23.732;2023-06-10T01:37:54;5.20;;;4.78;;
12776;SDS011;6452;41.572;23.732;2023-06-10T01:40:23;5.28;;;4.80;;
12776;SDS011;6452;41.572;23.732;2023-06-10T01:42:51;7.00;;;4.30;;
12776;SDS011;6452;41.572;23.732;2023-06-10T01:45:17;5.85;;;4.18;;
12776;SDS011;6452;41.572;23.732;2023-06-10T01:47:44;4.22;;;3.80;;
12776;SDS011;6452;41.572;23.732;2023-06-10T01:50:10;6.93;;;4.28;;
12776;SDS011;6452;41.572;23.732;2023-06-10T01:52:37;3.65;;;3.35;;
12776;SDS011;6452;41.572;23.732;2023-06-10T01:55:03;3.65;;;3.45;;
12776;SDS011;6452;41.572;23.732;2023-06-10T01:57:32;4.22;;;3.40;;
12776;SDS011;6452;41.572;23.732;2023-06-10T01:59:58;3.75;;;3.53;;
12776;SDS011;6452;41.572;23.732;2023-06-10T02:02:29;3.92;;;3.63;;
12776;SDS011;6452;41.572;23.732;2023-06-10T02:04:56;4.40;;;4.00;;
12776;SDS011;6452;41.572;23.732;2023-06-10T02:07:23;3.97;;;3.70;;
12776;SDS011;6452;41.572;23.732;2023-06-10T02:09:49;4.30;;;3.97;;
12776;SDS011;6452;41.572;23.732;2023-06-10T02:12:16;5.15;;;4.28;;
12776;SDS011;6452;41.572;23.732;2023-06-10T02:14:42;4.60;;;4.18;;
12776;SDS011;6452;41.572;23.732;2023-06-10T02:17:09;4.18;;;3.78;;
12776;SDS011;6452;41.572;23.732;2023-06-10T02:19:38;4.28;;;3.97;;
12776;SDS011;6452;41.572;23.732;2023-06-10T02:22:08;4.28;;;3.88;;
12776;SDS011;6452;41.572;23.732;2023-06-10T02:24:35;4.35;;;4.05;;
12776;SDS011;6452;41.572;23.732;2023-06-10T02:27:03;6.47;;;3.88;;
12776;SDS011;6452;41.572;23.732;2023-06-10T02:29:34;3.60;;;3.30;;
12776;SDS011;6452;41.572;23.732;2023-06-10T02:32:01;5.65;;;4.15;;
12776;SDS011;6452;41.572;23.732;2023-06-10T02:34:27;5.85;;;4.30;;
12776;SDS011;6452;41.572;23.732;2023-06-10T02:36:59;7.47;;;4.18;;
12776;SDS011;6452;41.572;23.732;2023-06-10T02:39:25;4.75;;;4.25;;
12776;SDS011;6452;41.572;23.732;2023-06-10T02:41:52;3.92;;;3.60;;
12776;SDS011;6452;41.572;23.732;2023-06-10T02:44:19;4.00;;;3.72;;
12776;SDS011;6452;41.572;23.732;2023-06-10T02:46:45;4.25;;;3.85;;
12776;SDS011;6452;41.572;23.732;2023-06-10T02:49:12;5.22;;;4.13;;
12776;SDS011;6452;41.572;23.732;2023-06-10T02:51:39;4.32;;;3.80;;
12776;SDS011;6452;41.572;23.732;2023-06-10T02:54:06;4.68;;;4.28;;
12776;SDS011;6452;41.572;23.732;2023-06-10T02:56:32;4.53;;;4.13;;
12776;SDS011;6452;41.572;23.732;2023-06-10T02:58:59;5.20;;;4.22;;
12776;SDS011;6452;41.572;23.732;2023-06-10T03:01:26;5.03;;;4.32;;
12776;SDS011;6452;41.572;23.732;2023-06-10T03:03:51;6.20;;;4.18;;
12776;SDS011;6452;41.572;23.732;2023-06-10T03:06:18;11.13;;;4.10;;
12776;SDS011;6452;41.572;23.732;2023-06-10T03:08:44;4.88;;;4.47;;
12776;SDS011;6452;41.572;23.732;2023-06-10T03:11:11;4.70;;;4.30;;
12776;SDS011;6452;41.572;23.732;2023-06-10T03:13:38;4.55;;;4.15;;
12776;SDS011;6452;41.572;23.732;2023-06-10T03:16:05;5.13;;;4.53;;
12776;SDS011;6452;41.572;23.732;2023-06-10T03:18:33;6.75;;;4.25;;
12776;SDS011;6452;41.572;23.732;2023-06-10T03:21:00;5.72;;;5.10;;
12776;SDS011;6452;41.572;23.732;2023-06-10T03:23:28;7.63;;;5.63;;
12776;SDS011;6452;41.572;23.732;2023-06-10T03:25:54;7.53;;;5.97;;
12776;SDS011;6452;41.572;23.732;2023-06-10T03:28:20;8.20;;;5.45;;
12776;SDS011;6452;41.572;23.732;2023-06-10T03:30:47;10.55;;;6.13;;
12776;SDS011;6452;41.572;23.732;2023-06-10T03:33:14;7.90;;;5.95;;
12776;SDS011;6452;41.572;23.732;2023-06-10T03:35:40;10.23;;;6.65;;
12776;SDS011;6452;41.572;23.732;2023-06-10T03:38:07;7.50;;;5.78;;
12776;SDS011;6452;41.572;23.732;2023-06-10T03:40:33;12.00;;;6.93;;
12776;SDS011;6452;41.572;23.732;2023-06-10T03:43:04;9.43;;;6.00;;
12776;SDS011;6452;41.572;23.732;2023-06-10T03:45:31;7.60;;;5.93;;
12776;SDS011;6452;41.572;23.732;2023-06-10T03:47:57;6.07;;;5.45;;
12776;SDS011;6452;41.572;23.732;2023-06-10T03:50:23;6.15;;;5.55;;
12776;SDS011;6452;41.572;23.732;2023-06-10T03:52:50;5.95;;;5.07;;
12776;SDS011;6452;41.572;23.732;2023-06-10T03:55:16;5.80;;;5.30;;
12776;SDS011;6452;41.572;23.732;2023-06-10T03:57:43;6.43;;;5.03;;
12776;SDS011;6452;41.572;23.732;2023-06-10T04:00:10;5.75;;;4.68;;
12776;SDS011;6452;41.572;23.732;2023-06-10T04:02:40;5.50;;;5.00;;
12776;SDS011;6452;41.572;23.732;2023-06-10T04:05:15;6.13;;;5.13;;
12776;SDS011;6452;41.572;23.732;2023-06-10T04:07:42;5.60;;;5.00;;
12776;SDS011;6452;41.572;23.732;2023-06-10T04:10:09;5.30;;;4.63;;
12776;SDS011;6452;41.572;23.732;2023-06-10T04:12:36;4.93;;;4.53;;
12776;SDS011;6452;41.572;23.732;2023-06-10T04:15:03;4.68;;;4.28;;
12776;SDS011;6452;41.572;23.732;2023-06-10T04:17:32;5.60;;;4.43;;
12776;SDS011;6452;41.572;23.732;2023-06-10T04:19:58;5.32;;;4.80;;
12776;SDS011;6452;41.572;23.732;2023-06-10T04:22:26;4.43;;;4.13;;
12776;SDS011;6452;41.572;23.732;2023-06-10T04:24:53;4.32;;;3.92;;
12776;SDS011;6452;41.572;23.732;2023-06-10T04:27:19;4.03;;;3.72;;
12776;SDS011;6452;41.572;23.732;2023-06-10T04:29:45;4.70;;;4.30;;
12776;SDS011;6452;41.572;23.732;2023-06-10T04:32:12;5.43;;;4.93;;
12776;SDS011;6452;41.572;23.732;2023-06-10T04:34:38;4.88;;;4.38;;
12776;SDS011;6452;41.572;23.732;2023-06-10T04:37:05;5.72;;;4.63;;
12776;SDS011;6452;41.572;23.732;2023-06-10T04:39:32;4.85;;;4.13;;
12776;SDS011;6452;41.572;23.732;2023-06-10T04:41:58;4.57;;;4.13;;
12776;SDS011;6452;41.572;23.732;2023-06-10T04:44:24;4.75;;;4.25;;
12776;SDS011;6452;41.572;23.732;2023-06-10T04:46:51;5.53;;;4.78;;
12776;SDS011;6452;41.572;23.732;2023-06-10T04:49:17;4.90;;;4.45;;
12776;SDS011;6452;41.572;23.732;2023-06-10T04:51:44;5.25;;;4.22;;
12776;SDS011;6452;41.572;23.732;2023-06-10T04:54:11;5.30;;;4.20;;
12776;SDS011;6452;41.572;23.732;2023-06-10T04:56:38;4.18;;;3.88;;
12776;SDS011;6452;41.572;23.732;2023-06-10T04:59:05;4.65;;;4.25;;
12776;SDS011;6452;41.572;23.732;2023-06-10T05:01:31;4.60;;;4.20;;
12776;SDS011;6452;41.572;23.732;2023-06-10T05:03:57;4.75;;;4.35;;
12776;SDS011;6452;41.572;23.732;2023-06-10T05:06:24;4.82;;;4.43;;
12776;SDS011;6452;41.572;23.732;2023-06-10T05:08:50;4.28;;;3.97;;
12776;SDS011;6452;41.572;23.732;2023-06-10T05:11:16;4.05;;;3.75;;
12776;SDS011;6452;41.572;23.732;2023-06-10T05:13:43;4.00;;;3.70;;
12776;SDS011;6452;41.572;23.732;2023-06-10T05:16:10;4.72;;;3.83;;
12776;SDS011;6452;41.572;23.732;2023-06-10T05:18:40;3.85;;;3.55;;
12776;SDS011;6452;41.572;23.732;2023-06-10T05:21:06;4.63;;;4.20;;
12776;SDS011;6452;41.572;23.732;2023-06-10T05:23:32;4.32;;;3.92;;
12776;SDS011;6452;41.572;23.732;2023-06-10T05:25:59;4.22;;;3.92;;
12776;SDS011;6452;41.572;23.732;2023-06-10T05:28:25;4.40;;;4.00;;
12776;SDS011;6452;41.572;23.732;2023-06-10T05:30:52;7.43;;;4.38;;
12776;SDS011;6452;41.572;23.732;2023-06-10T05:33:18;4.68;;;4.07;;
12776;SDS011;6452;41.572;23.732;2023-06-10T05:35:44;4.82;;;4.32;;
12776;SDS011;6452;41.572;23.732;2023-06-10T05:38:11;5.57;;;5.07;;
12776;SDS011;6452;41.572;23.732;2023-06-10T05:40:38;19.15;;;12.27;;
12776;SDS011;6452;41.572;23.732;2023-06-10T05:43:05;16.67;;;10.27;;
12776;SDS011;6452;41.572;23.732;2023-06-10T05:45:31;16.27;;;10.15;;
12776;SDS011;6452;41.572;23.732;2023-06-10T05:47:58;14.20;;;8.52;;
12776;SDS011;6452;41.572;23.732;2023-06-10T05:50:25;5.95;;;5.43;;
12776;SDS011;6452;41.572;23.732;2023-06-10T05:52:51;5.32;;;4.82;;
12776;SDS011;6452;41.572;23.732;2023-06-10T05:55:19;4.45;;;4.15;;
12776;SDS011;6452;41.572;23.732;2023-06-10T05:57:45;4.63;;;4.05;;
12776;SDS011;6452;41.572;23.732;2023-06-10T06:00:15;4.10;;;3.80;;
12776;SDS011;6452;41.572;23.732;2023-06-10T06:02:44;4.10;;;3.78;;
12776;SDS011;6452;41.572;23.732;2023-06-10T06:05:11;4.07;;;3.75;;
12776;SDS011;6452;41.572;23.732;2023-06-10T06:07:38;3.70;;;3.40;;
12776;SDS011;6452;41.572;23.732;2023-06-10T06:10:05;3.33;;;3.13;;
12776;SDS011;6452;41.572;23.732;2023-06-10T06:12:33;4.03;;;3.72;;
12776;SDS011;6452;41.572;23.732;2023-06-10T06:15:00;3.72;;;3.45;;
12776;SDS011;6452;41.572;23.732;2023-06-10T06:17:27;4.13;;;3.70;;
12776;SDS011;6452;41.572;23.732;2023-06-10T06:19:53;13.20;;;10.02;;
12776;SDS011;6452;41.572;23.732;2023-06-10T06:22:20;12.55;;;9.93;;
12776;SDS011;6452;41.572;23.732;2023-06-10T06:24:47;8.50;;;7.68;;
12776;SDS011;6452;41.572;23.732;2023-06-10T06:27:15;6.72;;;6.03;;
12776;SDS011;6452;41.572;23.732;2023-06-10T06:29:41;6.32;;;5.78;;
12776;SDS011;6452;41.572;23.732;2023-06-10T06:32:12;5.95;;;5.40;;
12776;SDS011;6452;41.572;23.732;2023-06-10T06:34:42;7.55;;;6.78;;
12776;SDS011;6452;41.572;23.732;2023-06-10T06:37:09;6.50;;;5.85;;
12776;SDS011;6452;41.572;23.732;2023-06-10T06:39:35;6.03;;;5.47;;
12776;SDS011;6452;41.572;23.732;2023-06-10T06:42:02;5.78;;;5.28;;
12776;SDS011;6452;41.572;23.732;2023-06-10T06:44:31;6.32;;;5.72;;
12776;SDS011;6452;41.572;23.732;2023-06-10T06:46:57;5.38;;;4.93;;
12776;SDS011;6452;41.572;23.732;2023-06-10T06:49:24;5.90;;;5.40;;
12776;SDS011;6452;41.572;23.732;2023-06-10T06:51:50;5.13;;;4.72;;
12776;SDS011;6452;41.572;23.732;2023-06-10T06:54:16;8.93;;;6.47;;
12776;SDS011;6452;41.572;23.732;2023-06-10T06:56:43;5.78;;;5.28;;
12776;SDS011;6452;41.572;23.732;2023-06-10T06:59:10;6.82;;;5.68;;
12776;SDS011;6452;41.572;23.732;2023-06-10T07:01:39;5.78;;;5.28;;
12776;SDS011;6452;41.572;23.732;2023-06-10T07:04:05;5.63;;;5.13;;
12776;SDS011;6452;41.572;23.732;2023-06-10T07:06:31;5.93;;;5.22;;
12776;SDS011;6452;41.572;23.732;2023-06-10T07:08:57;5.63;;;5.13;;
12776;SDS011;6452;41.572;23.732;2023-06-10T07:11:24;6.53;;;5.85;;
12776;SDS011;6452;41.572;23.732;2023-06-10T07:13:51;5.35;;;4.97;;
12776;SDS011;6452;41.572;23.732;2023-06-10T07:16:17;5.47;;;4.97;;
12776;SDS011;6452;41.572;23.732;2023-06-10T07:18:46;5.75;;;5.25;;
12776;SDS011;6452;41.572;23.732;2023-06-10T07:21:12;5.20;;;4.75;;
12776;SDS011;6452;41.572;23.732;2023-06-10T07:23:41;4.93;;;4.53;;
12776;SDS011;6452;41.572;23.732;2023-06-10T07:26:08;5.32;;;4.93;;
12776;SDS011;6452;41.572;23.732;2023-06-10T07:28:36;5.10;;;4.60;;
12776;SDS011;6452;41.572;23.732;2023-06-10T07:31:03;4.80;;;4.50;;
12776;SDS011;6452;41.572;23.732;2023-06-10T07:33:30;4.95;;;4.50;;
12776;SDS011;6452;41.572;23.732;2023-06-10T07:35:56;4.72;;;4.38;;
12776;SDS011;6452;41.572;23.732;2023-06-10T07:38:24;4.25;;;3.95;;
12776;SDS011;6452;41.572;23.732;2023-06-10T07:40:51;4.60;;;3.83;;
12776;SDS011;6452;41.572;23.732;2023-06-10T07:43:17;4.32;;;4.00;;
12776;SDS011;6452;41.572;23.732;2023-06-10T07:45:43;3.97;;;3.47;;
12776;SDS011;6452;41.572;23.732;2023-06-10T07:48:09;3.97;;;3.67;;
12776;SDS011;6452;41.572;23.732;2023-06-10T07:50:35;3.25;;;3.05;;
12776;SDS011;6452;41.572;23.732;2023-06-10T07:53:02;3.42;;;3.22;;
12776;SDS011;6452;41.572;23.732;2023-06-10T07:55:28;3.30;;;3.10;;
12776;SDS011;6452;41.572;23.732;2023-06-10T07:57:55;3.60;;;3.30;;
12776;SDS011;6452;41.572;23.732;2023-06-10T08:00:22;3.85;;;3.65;;
12776;SDS011;6452;41.572;23.732;2023-06-10T08:02:48;3.45;;;3.25;;
12776;SDS011;6452;41.572;23.732;2023-06-10T08:05:14;3.47;;;2.75;;
12776;SDS011;6452;41.572;23.732;2023-06-10T08:07:41;3.03;;;2.90;;
12776;SDS011;6452;41.572;23.732;2023-06-10T08:10:08;2.72;;;2.63;;
12776;SDS011;6452;41.572;23.732;2023-06-10T08:12:34;2.83;;;2.63;;
12776;SDS011;6452;41.572;23.732;2023-06-10T08:15:01;3.13;;;2.92;;
12776;SDS011;6452;41.572;23.732;2023-06-10T08:17:32;3.20;;;3.00;;
12776;SDS011;6452;41.572;23.732;2023-06-10T08:19:58;2.75;;;2.60;;
12776;SDS011;6452;41.572;23.732;2023-06-10T08:22:24;3.17;;;3.03;;
12776;SDS011;6452;41.572;23.732;2023-06-10T08:24:51;2.60;;;2.50;;
12776;SDS011;6452;41.572;23.732;2023-06-10T08:27:17;2.80;;;2.70;;
12776;SDS011;6452;41.572;23.732;2023-06-10T08:29:48;2.60;;;2.50;;
12776;SDS011;6452;41.572;23.732;2023-06-10T08:32:14;2.90;;;2.70;;
12776;SDS011;6452;41.572;23.732;2023-06-10T08:34:41;2.63;;;2.42;;
12776;SDS011;6452;41.572;23.732;2023-06-10T08:37:07;2.47;;;2.28;;
12776;SDS011;6452;41.572;23.732;2023-06-10T08:39:33;2.28;;;2.22;;
12776;SDS011;6452;41.572;23.732;2023-06-10T08:42:02;2.63;;;2.53;;
12776;SDS011;6452;41.572;23.732;2023-06-10T08:44:53;3.10;;;2.88;;
12776;SDS011;6452;41.572;23.732;2023-06-10T08:47:23;2.45;;;2.35;;
12776;SDS011;6452;41.572;23.732;2023-06-10T08:49:50;2.55;;;2.42;;
12776;SDS011;6452;41.572;23.732;2023-06-10T08:52:37;2.28;;;2.17;;
12776;SDS011;6452;41.572;23.732;2023-06-10T08:55:12;2.50;;;2.40;;
12776;SDS011;6452;41.572;23.732;2023-06-10T08:57:51;2.03;;;2.03;;
12776;SDS011;6452;41.572;23.732;2023-06-10T09:00:18;2.20;;;2.10;;
12776;SDS011;6452;41.572;23.732;2023-06-10T09:02:44;2.40;;;2.33;;
12776;SDS011;6452;41.572;23.732;2023-06-10T09:05:10;2.40;;;2.30;;
12776;SDS011;6452;41.572;23.732;2023-06-10T09:07:36;2.28;;;2.17;;
12776;SDS011;6452;41.572;23.732;2023-06-10T09:10:02;2.58;;;2.47;;
12776;SDS011;6452;41.572;23.732;2023-06-10T09:12:32;2.40;;;2.30;;
12776;SDS011;6452;41.572;23.732;2023-06-10T09:14:58;2.10;;;2.10;;
12776;SDS011;6452;41.572;23.732;2023-06-10T09:17:25;2.38;;;2.28;;
12776;SDS011;6452;41.572;23.732;2023-06-10T09:19:52;2.50;;;2.40;;
12776;SDS011;6452;41.572;23.732;2023-06-10T09:22:21;2.45;;;2.35;;
12776;SDS011;6452;41.572;23.732;2023-06-10T09:24:47;2.42;;;2.33;;
12776;SDS011;6452;41.572;23.732;2023-06-10T09:27:13;2.38;;;2.28;;
12776;SDS011;6452;41.572;23.732;2023-06-10T09:29:45;2.45;;;2.35;;
12776;SDS011;6452;41.572;23.732;2023-06-10T09:32:13;2.47;;;2.28;;
12776;SDS011;6452;41.572;23.732;2023-06-10T09:34:39;2.58;;;2.47;;
12776;SDS011;6452;41.572;23.732;2023-06-10T09:37:05;2.40;;;2.30;;
12776;SDS011;6452;41.572;23.732;2023-06-10T09:39:33;2.40;;;2.30;;
12776;SDS011;6452;41.572;23.732;2023-06-10T09:41:59;2.60;;;2.50;;
12776;SDS011;6452;41.572;23.732;2023-06-10T09:44:26;2.50;;;2.40;;
12776;SDS011;6452;41.572;23.732;2023-06-10T09:46:52;2.70;;;2.60;;
12776;SDS011;6452;41.572;23.732;2023-06-10T09:49:21;4.15;;;3.30;;
12776;SDS011;6452;41.572;23.732;2023-06-10T09:51:53;3.55;;;3.35;;
12776;SDS011;6452;41.572;23.732;2023-06-10T09:54:20;4.40;;;4.00;;
12776;SDS011;6452;41.572;23.732;2023-06-10T09:56:49;3.70;;;3.40;;
12776;SDS011;6452;41.572;23.732;2023-06-10T09:59:15;4.38;;;3.47;;
12776;SDS011;6452;41.572;23.732;2023-06-10T10:01:41;3.97;;;3.67;;
12776;SDS011;6452;41.572;23.732;2023-06-10T10:04:07;3.40;;;3.20;;
12776;SDS011;6452;41.572;23.732;2023-06-10T10:06:33;5.07;;;3.90;;
12776;SDS011;6452;41.572;23.732;2023-06-10T10:09:00;4.82;;;4.22;;
12776;SDS011;6452;41.572;23.732;2023-06-10T10:11:26;3.58;;;3.28;;
12776;SDS011;6452;41.572;23.732;2023-06-10T10:13:53;4.63;;;4.03;;
12776;SDS011;6452;41.572;23.732;2023-06-10T10:16:36;3.78;;;3.47;;
12776;SDS011;6452;41.572;23.732;2023-06-10T10:19:05;3.80;;;3.53;;
12776;SDS011;6452;41.572;23.732;2023-06-10T10:21:35;4.45;;;3.38;;
12776;SDS011;6452;41.572;23.732;2023-06-10T10:24:16;4.00;;;3.70;;
12776;SDS011;6452;41.572;23.732;2023-06-10T10:26:41;3.22;;;3.05;;
12776;SDS011;6452;41.572;23.732;2023-06-10T10:29:12;2.80;;;2.70;;
12776;SDS011;6452;41.572;23.732;2023-06-10T10:31:39;3.10;;;2.90;;
12776;SDS011;6452;41.572;23.732;2023-06-10T10:34:12;2.60;;;2.50;;
12776;SDS011;6452;41.572;23.732;2023-06-10T10:36:37;2.72;;;2.63;;
12776;SDS011;6452;41.572;23.732;2023-06-10T10:39:04;2.63;;;2.53;;
12776;SDS011;6452;41.572;23.732;2023-06-10T10:41:31;2.30;;;2.20;;
12776;SDS011;6452;41.572;23.732;2023-06-10T10:43:57;2.40;;;2.30;;
12776;SDS011;6452;41.572;23.732;2023-06-10T10:46:23;2.70;;;2.60;;
12776;SDS011;6452;41.572;23.732;2023-06-10T10:48:53;2.20;;;2.10;;
12776;SDS011;6452;41.572;23.732;2023-06-10T10:51:22;1.85;;;1.85;;
12776;SDS011;6452;41.572;23.732;2023-06-10T10:59:42;4.38;;;2.20;;
12776;SDS011;6452;41.572;23.732;2023-06-10T11:02:08;2.42;;;2.33;;
12776;SDS011;6452;41.572;23.732;2023-06-10T11:04:34;2.35;;;2.20;;
12776;SDS011;6452;41.572;23.732;2023-06-10T11:07:07;2.58;;;2.47;;
12776;SDS011;6452;41.572;23.732;2023-06-10T11:09:33;2.50;;;2.40;;
12776;SDS011;6452;41.572;23.732;2023-06-10T11:11:58;2.85;;;2.65;;
12776;SDS011;6452;41.572;23.732;2023-06-10T11:14:28;2.20;;;2.10;;
12776;SDS011;6452;41.572;23.732;2023-06-10T11:16:58;3.55;;;2.90;;
12776;SDS011;6452;41.572;23.732;2023-06-10T11:22:00;2.90;;;2.70;;
12776;SDS011;6452;41.572;23.732;2023-06-10T11:24:28;2.78;;;2.58;;
12776;SDS011;6452;41.572;23.732;2023-06-10T11:26:53;3.10;;;2.90;;
12776;SDS011;6452;41.572;23.732;2023-06-10T11:29:19;2.40;;;2.30;;
12776;SDS011;6452;41.572;23.732;2023-06-10T11:31:48;2.90;;;2.70;;
12776;SDS011;6452;41.572;23.732;2023-06-10T11:34:15;2.88;;;2.75;;
12776;SDS011;6452;41.572;23.732;2023-06-10T11:36:41;2.83;;;2.67;;
12776;SDS011;6452;41.572;23.732;2023-06-10T11:39:08;3.60;;;3.30;;
12776;SDS011;6452;41.572;23.732;2023-06-10T11:41:35;3.03;;;2.83;;
12776;SDS011;6452;41.572;23.732;2023-06-10T11:44:02;3.53;;;3.33;;
12776;SDS011;6452;41.572;23.732;2023-06-10T11:46:29;3.63;;;3.35;;
12776;SDS011;6452;41.572;23.732;2023-06-10T11:48:56;3.70;;;3.38;;
12776;SDS011;6452;41.572;23.732;2023-06-10T11:51:26;2.67;;;2.58;;
12776;SDS011;6452;41.572;23.732;2023-06-10T11:53:52;3.05;;;2.85;;
12776;SDS011;6452;41.572;23.732;2023-06-10T11:56:19;2.60;;;2.50;;
12776;SDS011;6452;41.572;23.732;2023-06-10T11:58:45;2.83;;;2.72;;
12776;SDS011;6452;41.572;23.732;2023-06-10T12:01:20;2.28;;;2.17;;
12776;SDS011;6452;41.572;23.732;2023-06-10T12:03:47;2.78;;;2.67;;
12776;SDS011;6452;41.572;23.732;2023-06-10T12:06:13;2.70;;;2.50;;
12776;SDS011;6452;41.572;23.732;2023-06-10T12:08:42;2.60;;;2.50;;
12776;SDS011;6452;41.572;23.732;2023-06-10T12:11:08;2.90;;;2.70;;
12776;SDS011;6452;41.572;23.732;2023-06-10T12:13:34;2.40;;;2.30;;
12776;SDS011;6452;41.572;23.732;2023-06-10T12:16:07;2.58;;;2.47;;
12776;SDS011;6452;41.572;23.732;2023-06-10T12:18:33;2.50;;;2.40;;
12776;SDS011;6452;41.572;23.732;2023-06-10T12:20:59;2.90;;;2.80;;
12776;SDS011;6452;41.572;23.732;2023-06-10T12:23:25;3.10;;;2.90;;
12776;SDS011;6452;41.572;23.732;2023-06-10T12:25:51;3.33;;;3.13;;
12776;SDS011;6452;41.572;23.732;2023-06-10T12:28:25;4.28;;;3.28;;
12776;SDS011;6452;41.572;23.732;2023-06-10T12:30:51;3.72;;;3.50;;
12776;SDS011;6452;41.572;23.732;2023-06-10T12:33:21;3.50;;;3.30;;
12776;SDS011;6452;41.572;23.732;2023-06-10T12:35:51;3.20;;;3.00;;
12776;SDS011;6452;41.572;23.732;2023-06-10T12:38:33;2.97;;;2.78;;
12776;SDS011;6452;41.572;23.732;2023-06-10T12:41:02;3.00;;;2.80;;
12776;SDS011;6452;41.572;23.732;2023-06-10T12:43:30;2.72;;;2.63;;
12776;SDS011;6452;41.572;23.732;2023-06-10T12:46:07;2.67;;;2.55;;
12776;SDS011;6452;41.572;23.732;2023-06-10T12:48:34;2.40;;;2.30;;
12776;SDS011;6452;41.572;23.732;2023-06-10T12:51:00;2.35;;;2.25;;
12776;SDS011;6452;41.572;23.732;2023-06-10T12:53:26;2.53;;;2.42;;
12776;SDS011;6452;41.572;23.732;2023-06-10T12:55:52;3.22;;;3.00;;
12776;SDS011;6452;41.572;23.732;2023-06-10T12:58:22;2.83;;;2.63;;
12776;SDS011;6452;41.572;23.732;2023-06-10T13:00:48;3.85;;;2.75;;
12776;SDS011;6452;41.572;23.732;2023-06-10T13:03:14;2.40;;;2.30;;
12776;SDS011;6452;41.572;23.732;2023-06-10T13:05:40;2.50;;;2.40;;
12776;SDS011;6452;41.572;23.732;2023-06-10T13:08:06;2.53;;;2.40;;
12776;SDS011;6452;41.572;23.732;2023-06-10T13:10:33;2.40;;;2.30;;
12776;SDS011;6452;41.572;23.732;2023-06-10T13:13:01;4.20;;;3.80;;
12776;SDS011;6452;41.572;23.732;2023-06-10T13:15:28;2.60;;;2.40;;
12776;SDS011;6452;41.572;23.732;2023-06-10T13:17:54;2.13;;;2.00;;
12776;SDS011;6452;41.572;23.732;2023-06-10T13:20:20;2.03;;;2.00;;
12776;SDS011;6452;41.572;23.732;2023-06-10T13:22:46;2.30;;;2.20;;
12776;SDS011;6452;41.572;23.732;2023-06-10T13:25:13;2.40;;;2.30;;
12776;SDS011;6452;41.572;23.732;2023-06-10T13:27:38;2.30;;;2.20;;
12776;SDS011;6452;41.572;23.732;2023-06-10T13:30:05;2.20;;;2.10;;
12776;SDS011;6452;41.572;23.732;2023-06-10T13:32:31;2.30;;;2.20;;
12776;SDS011;6452;41.572;23.732;2023-06-10T13:34:57;2.40;;;2.20;;
12776;SDS011;6452;41.572;23.732;2023-06-10T13:37:23;2.47;;;2.38;;
12776;SDS011;6452;41.572;23.732;2023-06-10T13:39:49;2.55;;;2.45;;
12776;SDS011;6452;41.572;23.732;2023-06-10T13:42:17;2.75;;;2.65;;
12776;SDS011;6452;41.572;23.732;2023-06-10T13:44:43;2.85;;;2.63;;
12776;SDS011;6452;41.572;23.732;2023-06-10T13:47:09;2.72;;;2.63;;
12776;SDS011;6452;41.572;23.732;2023-06-10T13:49:35;3.00;;;2.80;;
12776;SDS011;6452;41.572;23.732;2023-06-10T13:52:02;2.88;;;2.67;;
12776;SDS011;6452;41.572;23.732;2023-06-10T13:54:27;2.55;;;2.45;;
12776;SDS011;6452;41.572;23.732;2023-06-10T13:56:54;2.60;;;2.50;;
12776;SDS011;6452;41.572;23.732;2023-06-10T13:59:20;2.83;;;2.63;;
12776;SDS011;6452;41.572;23.732;2023-06-10T14:01:46;3.35;;;2.85;;
12776;SDS011;6452;41.572;23.732;2023-06-10T14:04:13;2.97;;;2.78;;
12776;SDS011;6452;41.572;23.732;2023-06-10T14:06:38;2.50;;;2.40;;
12776;SDS011;6452;41.572;23.732;2023-06-10T14:09:04;2.92;;;2.65;;
12776;SDS011;6452;41.572;23.732;2023-06-10T14:11:30;2.95;;;2.75;;
12776;SDS011;6452;41.572;23.732;2023-06-10T14:13:57;3.20;;;3.00;;
12776;SDS011;6452;41.572;23.732;2023-06-10T14:16:24;2.92;;;2.75;;
12776;SDS011;6452;41.572;23.732;2023-06-10T14:18:50;3.03;;;2.92;;
12776;SDS011;6452;41.572;23.732;2023-06-10T14:21:19;3.20;;;3.00;;
12776;SDS011;6452;41.572;23.732;2023-06-10T14:23:44;3.00;;;2.80;;
12776;SDS011;6452;41.572;23.732;2023-06-10T14:26:11;3.53;;;3.30;;
12776;SDS011;6452;41.572;23.732;2023-06-10T14:28:37;3.25;;;3.05;;
12776;SDS011;6452;41.572;23.732;2023-06-10T14:31:03;3.95;;;3.65;;
12776;SDS011;6452;41.572;23.732;2023-06-10T14:33:29;3.45;;;3.13;;
12776;SDS011;6452;41.572;23.732;2023-06-10T14:35:56;3.78;;;3.40;;
12776;SDS011;6452;41.572;23.732;2023-06-10T14:38:23;3.55;;;3.35;;
12776;SDS011;6452;41.572;23.732;2023-06-10T14:40:49;3.13;;;2.95;;
12776;SDS011;6452;41.572;23.732;2023-06-10T14:43:16;3.25;;;2.95;;
12776;SDS011;6452;41.572;23.732;2023-06-10T14:45:42;3.83;;;3.58;;
12776;SDS011;6452;41.572;23.732;2023-06-10T14:48:09;3.60;;;3.33;;
12776;SDS011;6452;41.572;23.732;2023-06-10T14:50:35;3.90;;;3.42;;
12776;SDS011;6452;41.572;23.732;2023-06-10T14:53:01;3.47;;;3.28;;
12776;SDS011;6452;41.572;23.732;2023-06-10T14:55:27;3.05;;;2.85;;
12776;SDS011;6452;41.572;23.732;2023-06-10T14:57:53;3.50;;;3.30;;
12776;SDS011;6452;41.572;23.732;2023-06-10T15:00:19;3.10;;;2.90;;
12776;SDS011;6452;41.572;23.732;2023-06-10T15:02:47;3.13;;;2.92;;